sensor_id;sensor_type;location;lat;lon;timestamp;temperature;humidity
67893;DHT22;54688;52.376;16.744;2023-12-28T00:02:26;0.7;84.4
67893;DHT22;54688;52.376;16.744;2023-12-28T00:05:28;0.6;84.3
67893;DHT22;54688;52.376;16.744;2023-12-28T00:08:30;0.6;84.3
67893;DHT22;54688;52.376;16.744;2023-12-28T00:11:33;0.6;84.5
67893;DHT22;54688;52.376;16.744;2023-12-28T00:14:35;0.6;84.5
67893;DHT22;54688;52.376;16.744;2023-12-28T00:17:37;0.6;84.6
67893;DHT22;54688;52.376;16.744;2023-12-28T00:20:40;0.6;84.7
67893;DHT22;54688;52.376;16.744;2023-12-28T00:23:42;0.6;84.7
67893;DHT22;54688;52.376;16.744;2023-12-28T00:26:43;0.7;84.7
67893;DHT22;54688;52.376;16.744;2023-12-28T00:29:45;0.6;84.5
67893;DHT22;54688;52.376;16.744;2023-12-28T00:32:47;0.6;84.6
67893;DHT22;54688;52.376;16.744;2023-12-28T00:35:50;0.6;84.7
67893;DHT22;54688;52.376;16.744;2023-12-28T00:38:52;0.6;84.7
67893;DHT22;54688;52.376;16.744;2023-12-28T00:41:54;0.6;84.7
67893;DHT22;54688;52.376;16.744;2023-12-28T00:44:57;0.5;84.9
67893;DHT22;54688;52.376;16.744;2023-12-28T00:47:59;0.5;84.6
67893;DHT22;54688;52.376;16.744;2023-12-28T00:51:01;0.5;84.6
67893;DHT22;54688;52.376;16.744;2023-12-28T00:54:03;0.6;84.6
67893;DHT22;54688;52.376;16.744;2023-12-28T00:57:05;0.5;84.6
67893;DHT22;54688;52.376;16.744;2023-12-28T01:00:08;0.5;84.6
67893;DHT22;54688;52.376;16.744;2023-12-28T01:03:11;0.5;84.6
67893;DHT22;54688;52.376;16.744;2023-12-28T01:06:13;0.5;84.9
67893;DHT22;54688;52.376;16.744;2023-12-28T01:09:15;0.5;84.8
67893;DHT22;54688;52.376;16.744;2023-12-28T01:12:18;0.6;84.7
67893;DHT22;54688;52.376;16.744;2023-12-28T01:15:20;0.6;85.3
67893;DHT22;54688;52.376;16.744;2023-12-28T01:18:23;0.6;84.9
67893;DHT22;54688;52.376;16.744;2023-12-28T01:21:25;0.6;85
67893;DHT22;54688;52.376;16.744;2023-12-28T01:24:27;0.6;84.9
67893;DHT22;54688;52.376;16.744;2023-12-28T01:27:29;0.7;85
67893;DHT22;54688;52.376;16.744;2023-12-28T01:30:31;0.7;84.9
67893;DHT22;54688;52.376;16.744;2023-12-28T01:33:33;0.7;84.9
67893;DHT22;54688;52.376;16.744;2023-12-28T01:36:35;0.8;85.1
67893;DHT22;54688;52.376;16.744;2023-12-28T01:39:38;0.8;84.7
67893;DHT22;54688;52.376;16.744;2023-12-28T01:42:40;0.8;84.7
67893;DHT22;54688;52.376;16.744;2023-12-28T01:45:42;0.8;84.5
67893;DHT22;54688;52.376;16.744;2023-12-28T01:48:45;0.8;84.4
67893;DHT22;54688;52.376;16.744;2023-12-28T01:51:50;0.9;84.6
67893;DHT22;54688;52.376;16.744;2023-12-28T01:54:53;0.9;84.6
67893;DHT22;54688;52.376;16.744;2023-12-28T01:57:55;0.9;84.7
67893;DHT22;54688;52.376;16.744;2023-12-28T02:00:59;0.9;84.6
67893;DHT22;54688;52.376;16.744;2023-12-28T02:04:02;0.9;84.6
67893;DHT22;54688;52.376;16.744;2023-12-28T02:07:04;0.9;84.7
67893;DHT22;54688;52.376;16.744;2023-12-28T02:10:07;0.9;84.7
67893;DHT22;54688;52.376;16.744;2023-12-28T02:13:09;0.9;84.8
67893;DHT22;54688;52.376;16.744;2023-12-28T02:16:13;1;84.8
67893;DHT22;54688;52.376;16.744;2023-12-28T02:19:19;1;84.7
67893;DHT22;54688;52.376;16.744;2023-12-28T02:22:28;1;84.7
67893;DHT22;54688;52.376;16.744;2023-12-28T02:25:30;1;84.7
67893;DHT22;54688;52.376;16.744;2023-12-28T02:28:33;1;84.7
67893;DHT22;54688;52.376;16.744;2023-12-28T02:31:37;1;84.7
67893;DHT22;54688;52.376;16.744;2023-12-28T02:34:45;1;84.7
67893;DHT22;54688;52.376;16.744;2023-12-28T02:37:51;1.1;84.6
67893;DHT22;54688;52.376;16.744;2023-12-28T02:40:57;1;84.5
67893;DHT22;54688;52.376;16.744;2023-12-28T02:44:00;1;84.3
67893;DHT22;54688;52.376;16.744;2023-12-28T02:47:02;1.1;84.3
67893;DHT22;54688;52.376;16.744;2023-12-28T02:50:06;1;84.3
67893;DHT22;54688;52.376;16.744;2023-12-28T02:53:09;1;84.5
67893;DHT22;54688;52.376;16.744;2023-12-28T02:56:11;1;84.5
67893;DHT22;54688;52.376;16.744;2023-12-28T02:59:13;1;84.5
67893;DHT22;54688;52.376;16.744;2023-12-28T03:02:15;1;84.5
67893;DHT22;54688;52.376;16.744;2023-12-28T03:05:18;1;84.5
67893;DHT22;54688;52.376;16.744;2023-12-28T03:08:20;1;84.5
67893;DHT22;54688;52.376;16.744;2023-12-28T03:11:22;1;84.5
67893;DHT22;54688;52.376;16.744;2023-12-28T03:14:24;1;84.5
67893;DHT22;54688;52.376;16.744;2023-12-28T03:17:26;1;84.5
67893;DHT22;54688;52.376;16.744;2023-12-28T03:20:28;1;84.5
67893;DHT22;54688;52.376;16.744;2023-12-28T03:23:31;1;84.4
67893;DHT22;54688;52.376;16.744;2023-12-28T03:26:37;1;84.4
67893;DHT22;54688;52.376;16.744;2023-12-28T03:29:40;1;84.6
67893;DHT22;54688;52.376;16.744;2023-12-28T03:32:43;0.9;83.9
67893;DHT22;54688;52.376;16.744;2023-12-28T03:35:45;0.9;84.4
67893;DHT22;54688;52.376;16.744;2023-12-28T03:38:48;0.8;83.9
67893;DHT22;54688;52.376;16.744;2023-12-28T03:41:50;0.8;84.5
67893;DHT22;54688;52.376;16.744;2023-12-28T03:44:52;0.8;84.4
67893;DHT22;54688;52.376;16.744;2023-12-28T03:47:54;0.7;84.6
67893;DHT22;54688;52.376;16.744;2023-12-28T03:50:56;0.7;84.7
67893;DHT22;54688;52.376;16.744;2023-12-28T03:53:58;0.7;85.3
67893;DHT22;54688;52.376;16.744;2023-12-28T03:57:00;0.7;84.9
67893;DHT22;54688;52.376;16.744;2023-12-28T04:00:03;0.7;84.7
67893;DHT22;54688;52.376;16.744;2023-12-28T04:03:07;0.7;84.9
67893;DHT22;54688;52.376;16.744;2023-12-28T04:06:09;0.7;85
67893;DHT22;54688;52.376;16.744;2023-12-28T04:09:11;0.7;85.1
67893;DHT22;54688;52.376;16.744;2023-12-28T04:12:13;0.7;85.2
67893;DHT22;54688;52.376;16.744;2023-12-28T04:15:16;0.8;85.4
67893;DHT22;54688;52.376;16.744;2023-12-28T04:18:19;0.8;84.5
67893;DHT22;54688;52.376;16.744;2023-12-28T04:21:20;0.8;85.4
67893;DHT22;54688;52.376;16.744;2023-12-28T04:24:23;0.9;85.6
67893;DHT22;54688;52.376;16.744;2023-12-28T04:27:25;0.9;85.5
67893;DHT22;54688;52.376;16.744;2023-12-28T04:30:26;0.9;85.6
67893;DHT22;54688;52.376;16.744;2023-12-28T04:33:29;1;85.6
67893;DHT22;54688;52.376;16.744;2023-12-28T04:36:31;1;85.4
67893;DHT22;54688;52.376;16.744;2023-12-28T04:39:33;1;85.1
67893;DHT22;54688;52.376;16.744;2023-12-28T04:42:36;1;85.1
67893;DHT22;54688;52.376;16.744;2023-12-28T04:45:38;1;85
67893;DHT22;54688;52.376;16.744;2023-12-28T04:48:40;1.1;85.1
67893;DHT22;54688;52.376;16.744;2023-12-28T04:51:43;1.1;84.9
67893;DHT22;54688;52.376;16.744;2023-12-28T04:54:45;1.1;84.8
67893;DHT22;54688;52.376;16.744;2023-12-28T04:57:47;1.1;85
67893;DHT22;54688;52.376;16.744;2023-12-28T05:00:49;1;84.9
67893;DHT22;54688;52.376;16.744;2023-12-28T05:03:51;1.1;84.9
67893;DHT22;54688;52.376;16.744;2023-12-28T05:06:53;1.1;85.1
67893;DHT22;54688;52.376;16.744;2023-12-28T05:09:56;1.1;85.3
67893;DHT22;54688;52.376;16.744;2023-12-28T05:12:58;1.1;85.3
67893;DHT22;54688;52.376;16.744;2023-12-28T05:16:00;1.2;85.2
67893;DHT22;54688;52.376;16.744;2023-12-28T05:19:03;1.2;85.2
67893;DHT22;54688;52.376;16.744;2023-12-28T05:22:05;1.3;85.4
67893;DHT22;54688;52.376;16.744;2023-12-28T05:25:08;1.3;85.3
67893;DHT22;54688;52.376;16.744;2023-12-28T05:28:10;1.4;85.4
67893;DHT22;54688;52.376;16.744;2023-12-28T05:31:12;1.4;85.5
67893;DHT22;54688;52.376;16.744;2023-12-28T05:34:14;1.4;85.4
67893;DHT22;54688;52.376;16.744;2023-12-28T05:37:17;1.5;85.2
67893;DHT22;54688;52.376;16.744;2023-12-28T05:40:19;1.6;85.1
67893;DHT22;54688;52.376;16.744;2023-12-28T05:43:21;1.6;85.2
67893;DHT22;54688;52.376;16.744;2023-12-28T05:46:23;1.7;85.3
67893;DHT22;54688;52.376;16.744;2023-12-28T05:49:25;1.7;85.5
67893;DHT22;54688;52.376;16.744;2023-12-28T05:52:27;1.8;85.5
67893;DHT22;54688;52.376;16.744;2023-12-28T05:55:29;1.8;84.5
67893;DHT22;54688;52.376;16.744;2023-12-28T05:58:31;1.9;84.9
67893;DHT22;54688;52.376;16.744;2023-12-28T06:01:40;1.9;84.5
67893;DHT22;54688;52.376;16.744;2023-12-28T06:04:43;2;84.4
67893;DHT22;54688;52.376;16.744;2023-12-28T06:07:45;2.1;84.3
67893;DHT22;54688;52.376;16.744;2023-12-28T06:10:47;2.2;84.1
67893;DHT22;54688;52.376;16.744;2023-12-28T06:13:49;2.3;83.9
67893;DHT22;54688;52.376;16.744;2023-12-28T06:16:52;2.3;83.7
67893;DHT22;54688;52.376;16.744;2023-12-28T06:19:54;2.4;83.7
67893;DHT22;54688;52.376;16.744;2023-12-28T06:22:56;2.5;83.8
67893;DHT22;54688;52.376;16.744;2023-12-28T06:26:03;2.5;83.8
67893;DHT22;54688;52.376;16.744;2023-12-28T06:29:06;2.6;83.9
67893;DHT22;54688;52.376;16.744;2023-12-28T06:32:08;2.6;84.4
67893;DHT22;54688;52.376;16.744;2023-12-28T06:35:10;2.6;85
67893;DHT22;54688;52.376;16.744;2023-12-28T06:38:12;2.7;85.2
67893;DHT22;54688;52.376;16.744;2023-12-28T06:41:14;2.7;85.8
67893;DHT22;54688;52.376;16.744;2023-12-28T06:44:17;2.8;85.9
67893;DHT22;54688;52.376;16.744;2023-12-28T06:47:18;2.9;85.8
67893;DHT22;54688;52.376;16.744;2023-12-28T06:50:21;3;85.9
67893;DHT22;54688;52.376;16.744;2023-12-28T06:53:23;3;86.1
67893;DHT22;54688;52.376;16.744;2023-12-28T06:56:25;3.1;85.2
67893;DHT22;54688;52.376;16.744;2023-12-28T06:59:27;3.2;86.6
67893;DHT22;54688;52.376;16.744;2023-12-28T07:02:29;3.2;86
67893;DHT22;54688;52.376;16.744;2023-12-28T07:05:31;3.3;85.9
67893;DHT22;54688;52.376;16.744;2023-12-28T07:08:33;3.4;85.9
67893;DHT22;54688;52.376;16.744;2023-12-28T07:11:35;3.5;85.8
67893;DHT22;54688;52.376;16.744;2023-12-28T07:14:37;3.6;85.5
67893;DHT22;54688;52.376;16.744;2023-12-28T07:17:39;3.6;85.4
67893;DHT22;54688;52.376;16.744;2023-12-28T07:20:41;3.7;85.5
67893;DHT22;54688;52.376;16.744;2023-12-28T07:23:43;3.7;85.4
67893;DHT22;54688;52.376;16.744;2023-12-28T07:26:45;3.8;85.4
67893;DHT22;54688;52.376;16.744;2023-12-28T07:29:47;3.8;85.4
67893;DHT22;54688;52.376;16.744;2023-12-28T07:32:49;4;85.2
67893;DHT22;54688;52.376;16.744;2023-12-28T07:35:51;4.1;84.9
67893;DHT22;54688;52.376;16.744;2023-12-28T07:38:53;4.1;84.6
67893;DHT22;54688;52.376;16.744;2023-12-28T07:41:56;4.2;84.6
67893;DHT22;54688;52.376;16.744;2023-12-28T07:44:58;4.2;84.5
67893;DHT22;54688;52.376;16.744;2023-12-28T07:48:00;4.3;84.3
67893;DHT22;54688;52.376;16.744;2023-12-28T07:51:03;4.3;84.1
67893;DHT22;54688;52.376;16.744;2023-12-28T07:54:07;4.4;83.7
67893;DHT22;54688;52.376;16.744;2023-12-28T07:57:13;4.5;83.6
67893;DHT22;54688;52.376;16.744;2023-12-28T08:00:15;4.5;83.5
67893;DHT22;54688;52.376;16.744;2023-12-28T08:03:17;4.6;83.4
67893;DHT22;54688;52.376;16.744;2023-12-28T08:06:19;4.6;83.1
67893;DHT22;54688;52.376;16.744;2023-12-28T08:09:21;4.7;82.9
67893;DHT22;54688;52.376;16.744;2023-12-28T08:12:23;4.7;82.5
67893;DHT22;54688;52.376;16.744;2023-12-28T08:15:25;4.7;81.4
67893;DHT22;54688;52.376;16.744;2023-12-28T08:18:27;4.8;82.4
67893;DHT22;54688;52.376;16.744;2023-12-28T08:21:30;4.8;82.4
67893;DHT22;54688;52.376;16.744;2023-12-28T08:24:32;4.8;81.5
67893;DHT22;54688;52.376;16.744;2023-12-28T08:27:34;4.9;82.2
67893;DHT22;54688;52.376;16.744;2023-12-28T08:30:37;4.9;82.3
67893;DHT22;54688;52.376;16.744;2023-12-28T08:33:39;4.9;80.9
67893;DHT22;54688;52.376;16.744;2023-12-28T08:36:40;4.9;81.9
67893;DHT22;54688;52.376;16.744;2023-12-28T08:39:43;5;81.9
67893;DHT22;54688;52.376;16.744;2023-12-28T08:42:45;5;82
67893;DHT22;54688;52.376;16.744;2023-12-28T08:45:48;5.1;82.6
67893;DHT22;54688;52.376;16.744;2023-12-28T08:48:50;5.1;81.6
67893;DHT22;54688;52.376;16.744;2023-12-28T08:51:52;5.1;81.5
67893;DHT22;54688;52.376;16.744;2023-12-28T08:54:54;5.2;81.5
67893;DHT22;54688;52.376;16.744;2023-12-28T08:57:56;5.3;81
67893;DHT22;54688;52.376;16.744;2023-12-28T09:00:59;5.3;80.6
67893;DHT22;54688;52.376;16.744;2023-12-28T09:04:02;5.4;80.3
67893;DHT22;54688;52.376;16.744;2023-12-28T09:07:04;5.4;80.4
67893;DHT22;54688;52.376;16.744;2023-12-28T09:10:06;5.5;79.7
67893;DHT22;54688;52.376;16.744;2023-12-28T09:13:14;5.5;79.8
67893;DHT22;54688;52.376;16.744;2023-12-28T09:16:16;5.6;79.4
67893;DHT22;54688;52.376;16.744;2023-12-28T09:19:18;5.5;79.2
67893;DHT22;54688;52.376;16.744;2023-12-28T09:22:21;5.5;78.8
67893;DHT22;54688;52.376;16.744;2023-12-28T09:25:23;5.6;78.7
67893;DHT22;54688;52.376;16.744;2023-12-28T09:28:26;5.6;79.2
67893;DHT22;54688;52.376;16.744;2023-12-28T09:31:28;5.7;79
67893;DHT22;54688;52.376;16.744;2023-12-28T09:34:31;5.7;78.5
67893;DHT22;54688;52.376;16.744;2023-12-28T09:37:34;5.8;78.5
67893;DHT22;54688;52.376;16.744;2023-12-28T09:40:35;5.8;78.4
67893;DHT22;54688;52.376;16.744;2023-12-28T09:43:40;5.9;78.8
67893;DHT22;54688;52.376;16.744;2023-12-28T09:46:47;5.9;78.2
67893;DHT22;54688;52.376;16.744;2023-12-28T09:49:49;6;79
67893;DHT22;54688;52.376;16.744;2023-12-28T09:52:52;6;78.4
67893;DHT22;54688;52.376;16.744;2023-12-28T09:55:55;5.9;78.2
67893;DHT22;54688;52.376;16.744;2023-12-28T09:58:58;6;78.2
67893;DHT22;54688;52.376;16.744;2023-12-28T10:02:00;6;77.8
67893;DHT22;54688;52.376;16.744;2023-12-28T10:05:04;6;77.8
67893;DHT22;54688;52.376;16.744;2023-12-28T10:08:07;6;77.7
67893;DHT22;54688;52.376;16.744;2023-12-28T10:11:10;6;77.3
67893;DHT22;54688;52.376;16.744;2023-12-28T10:14:12;6.1;77.4
67893;DHT22;54688;52.376;16.744;2023-12-28T10:17:15;6.1;77.4
67893;DHT22;54688;52.376;16.744;2023-12-28T10:20:18;6.1;77.9
67893;DHT22;54688;52.376;16.744;2023-12-28T10:23:20;6.1;77.7
67893;DHT22;54688;52.376;16.744;2023-12-28T10:26:23;6.2;76.9
67893;DHT22;54688;52.376;16.744;2023-12-28T10:29:26;6.1;77.6
67893;DHT22;54688;52.376;16.744;2023-12-28T10:32:28;6.2;78.7
67893;DHT22;54688;52.376;16.744;2023-12-28T10:35:30;6.2;77.8
67893;DHT22;54688;52.376;16.744;2023-12-28T10:38:32;6.2;77.5
67893;DHT22;54688;52.376;16.744;2023-12-28T10:41:36;6.2;77.8
67893;DHT22;54688;52.376;16.744;2023-12-28T10:44:40;6.2;77.8
67893;DHT22;54688;52.376;16.744;2023-12-28T10:47:47;6.2;77.7
67893;DHT22;54688;52.376;16.744;2023-12-28T10:51:01;6.2;77.7
67893;DHT22;54688;52.376;16.744;2023-12-28T10:54:09;6.3;77.9
67893;DHT22;54688;52.376;16.744;2023-12-28T10:57:22;6.3;78.4
67893;DHT22;54688;52.376;16.744;2023-12-28T11:00:30;6.3;78.9
67893;DHT22;54688;52.376;16.744;2023-12-28T11:03:37;6.3;78.7
67893;DHT22;54688;52.376;16.744;2023-12-28T11:06:42;6.3;78
67893;DHT22;54688;52.376;16.744;2023-12-28T11:09:45;6.3;78.1
67893;DHT22;54688;52.376;16.744;2023-12-28T11:12:48;6.3;78.2
67893;DHT22;54688;52.376;16.744;2023-12-28T11:15:53;6.3;78.9
67893;DHT22;54688;52.376;16.744;2023-12-28T11:18:56;6.3;78.9
67893;DHT22;54688;52.376;16.744;2023-12-28T11:22:00;6.4;78.4
67893;DHT22;54688;52.376;16.744;2023-12-28T11:25:04;6.4;78.3
67893;DHT22;54688;52.376;16.744;2023-12-28T11:28:09;6.5;78.5
67893;DHT22;54688;52.376;16.744;2023-12-28T11:31:13;6.5;78.5
67893;DHT22;54688;52.376;16.744;2023-12-28T11:34:15;6.5;78.5
67893;DHT22;54688;52.376;16.744;2023-12-28T11:37:18;6.5;77.8
67893;DHT22;54688;52.376;16.744;2023-12-28T11:40:22;6.6;77.4
67893;DHT22;54688;52.376;16.744;2023-12-28T11:43:25;6.6;77.3
67893;DHT22;54688;52.376;16.744;2023-12-28T11:46:29;6.6;77.9
67893;DHT22;54688;52.376;16.744;2023-12-28T11:49:31;6.6;76.8
67893;DHT22;54688;52.376;16.744;2023-12-28T11:52:33;6.6;77.4
67893;DHT22;54688;52.376;16.744;2023-12-28T11:55:36;6.7;77
67893;DHT22;54688;52.376;16.744;2023-12-28T11:58:40;6.7;77.3
67893;DHT22;54688;52.376;16.744;2023-12-28T12:04:42;6.7;77.2
67893;DHT22;54688;52.376;16.744;2023-12-28T12:07:45;6.7;77.3
67893;DHT22;54688;52.376;16.744;2023-12-28T12:10:58;6.6;77.1
67893;DHT22;54688;52.376;16.744;2023-12-28T12:14:01;6.6;77.3
67893;DHT22;54688;52.376;16.744;2023-12-28T12:17:04;6.6;77.1
67893;DHT22;54688;52.376;16.744;2023-12-28T12:20:06;6.6;77.3
67893;DHT22;54688;52.376;16.744;2023-12-28T12:23:10;6.6;77.2
67893;DHT22;54688;52.376;16.744;2023-12-28T12:26:18;6.5;77.1
67893;DHT22;54688;52.376;16.744;2023-12-28T12:29:21;6.5;77
67893;DHT22;54688;52.376;16.744;2023-12-28T12:32:23;6.5;77.1
67893;DHT22;54688;52.376;16.744;2023-12-28T12:35:26;6.5;77.2
67893;DHT22;54688;52.376;16.744;2023-12-28T12:38:30;6.5;77
67893;DHT22;54688;52.376;16.744;2023-12-28T12:41:32;6.5;76.9
67893;DHT22;54688;52.376;16.744;2023-12-28T12:44:34;6.5;77
67893;DHT22;54688;52.376;16.744;2023-12-28T12:47:36;6.5;77
67893;DHT22;54688;52.376;16.744;2023-12-28T12:50:38;6.6;77.1
67893;DHT22;54688;52.376;16.744;2023-12-28T12:53:40;6.5;77.8
67893;DHT22;54688;52.376;16.744;2023-12-28T12:56:42;6.6;77.9
67893;DHT22;54688;52.376;16.744;2023-12-28T12:59:44;6.5;77.1
67893;DHT22;54688;52.376;16.744;2023-12-28T13:02:47;6.6;76.2
67893;DHT22;54688;52.376;16.744;2023-12-28T13:05:52;6.6;76.7
67893;DHT22;54688;52.376;16.744;2023-12-28T13:08:54;6.7;76.6
67893;DHT22;54688;52.376;16.744;2023-12-28T13:11:56;6.7;76.7
67893;DHT22;54688;52.376;16.744;2023-12-28T13:14:58;6.7;76.7
67893;DHT22;54688;52.376;16.744;2023-12-28T13:18:01;6.8;76.6
67893;DHT22;54688;52.376;16.744;2023-12-28T13:21:03;6.8;76.6
67893;DHT22;54688;52.376;16.744;2023-12-28T13:24:06;6.8;76.3
67893;DHT22;54688;52.376;16.744;2023-12-28T13:27:09;6.8;76.5
67893;DHT22;54688;52.376;16.744;2023-12-28T13:30:12;6.8;76.4
67893;DHT22;54688;52.376;16.744;2023-12-28T13:33:15;6.8;75.9
67893;DHT22;54688;52.376;16.744;2023-12-28T13:36:17;6.8;76.2
67893;DHT22;54688;52.376;16.744;2023-12-28T13:39:20;6.8;76.8
67893;DHT22;54688;52.376;16.744;2023-12-28T13:42:22;6.8;76.8
67893;DHT22;54688;52.376;16.744;2023-12-28T13:45:25;6.7;76.5
67893;DHT22;54688;52.376;16.744;2023-12-28T13:48:27;6.7;76.4
67893;DHT22;54688;52.376;16.744;2023-12-28T13:51:29;6.8;76.9
67893;DHT22;54688;52.376;16.744;2023-12-28T13:54:31;6.7;76.7
67893;DHT22;54688;52.376;16.744;2023-12-28T13:57:33;6.6;76.4
67893;DHT22;54688;52.376;16.744;2023-12-28T14:00:35;6.7;76.7
67893;DHT22;54688;52.376;16.744;2023-12-28T14:03:38;6.6;76.7
67893;DHT22;54688;52.376;16.744;2023-12-28T14:06:40;6.6;76.8
67893;DHT22;54688;52.376;16.744;2023-12-28T14:09:43;6.5;77
67893;DHT22;54688;52.376;16.744;2023-12-28T14:12:45;6.4;76.6
67893;DHT22;54688;52.376;16.744;2023-12-28T14:15:47;6.3;77.5
67893;DHT22;54688;52.376;16.744;2023-12-28T14:18:49;6.3;77.8
67893;DHT22;54688;52.376;16.744;2023-12-28T14:21:51;6.2;77.8
67893;DHT22;54688;52.376;16.744;2023-12-28T14:24:54;6.2;78.5
67893;DHT22;54688;52.376;16.744;2023-12-28T14:27:56;6.1;77.3
67893;DHT22;54688;52.376;16.744;2023-12-28T14:30:59;6;77.5
67893;DHT22;54688;52.376;16.744;2023-12-28T14:34:02;6;78.4
67893;DHT22;54688;52.376;16.744;2023-12-28T14:37:05;6;78.5
67893;DHT22;54688;52.376;16.744;2023-12-28T14:40:07;5.9;78.7
67893;DHT22;54688;52.376;16.744;2023-12-28T14:43:10;5.8;78.9
67893;DHT22;54688;52.376;16.744;2023-12-28T14:46:13;5.8;79.1
67893;DHT22;54688;52.376;16.744;2023-12-28T14:49:16;5.7;79.3
67893;DHT22;54688;52.376;16.744;2023-12-28T14:52:18;5.7;80.2
67893;DHT22;54688;52.376;16.744;2023-12-28T14:55:20;5.6;79.7
67893;DHT22;54688;52.376;16.744;2023-12-28T14:58:23;5.6;79.8
67893;DHT22;54688;52.376;16.744;2023-12-28T15:01:25;5.5;79.8
67893;DHT22;54688;52.376;16.744;2023-12-28T15:04:27;5.5;80
67893;DHT22;54688;52.376;16.744;2023-12-28T15:07:29;5.5;80.1
67893;DHT22;54688;52.376;16.744;2023-12-28T15:10:32;5.4;80.1
67893;DHT22;54688;52.376;16.744;2023-12-28T15:13:35;5.4;80.6
67893;DHT22;54688;52.376;16.744;2023-12-28T15:16:38;5.3;80.4
67893;DHT22;54688;52.376;16.744;2023-12-28T15:19:41;5.3;80.4
67893;DHT22;54688;52.376;16.744;2023-12-28T15:22:43;5.2;80.5
67893;DHT22;54688;52.376;16.744;2023-12-28T15:25:46;5.2;80.8
67893;DHT22;54688;52.376;16.744;2023-12-28T15:28:48;5.1;80.8
67893;DHT22;54688;52.376;16.744;2023-12-28T15:31:51;5.1;80.8
67893;DHT22;54688;52.376;16.744;2023-12-28T15:34:53;5.1;81
67893;DHT22;54688;52.376;16.744;2023-12-28T15:37:56;5;81.2
67893;DHT22;54688;52.376;16.744;2023-12-28T15:40:58;4.9;81.3
67893;DHT22;54688;52.376;16.744;2023-12-28T15:44:00;4.9;81.5
67893;DHT22;54688;52.376;16.744;2023-12-28T15:47:02;4.8;82.3
67893;DHT22;54688;52.376;16.744;2023-12-28T15:50:05;4.8;81.8
67893;DHT22;54688;52.376;16.744;2023-12-28T15:53:07;4.7;81.8
67893;DHT22;54688;52.376;16.744;2023-12-28T15:56:09;4.7;80.9
67893;DHT22;54688;52.376;16.744;2023-12-28T15:59:12;4.7;81.9
67893;DHT22;54688;52.376;16.744;2023-12-28T16:02:15;4.7;81.9
67893;DHT22;54688;52.376;16.744;2023-12-28T16:05:17;4.7;82.1
67893;DHT22;54688;52.376;16.744;2023-12-28T16:08:19;4.6;82
67893;DHT22;54688;52.376;16.744;2023-12-28T16:11:22;4.6;82
67893;DHT22;54688;52.376;16.744;2023-12-28T16:14:25;4.5;82.7
67893;DHT22;54688;52.376;16.744;2023-12-28T16:17:27;4.5;82.5
67893;DHT22;54688;52.376;16.744;2023-12-28T16:20:30;4.5;82.6
67893;DHT22;54688;52.376;16.744;2023-12-28T16:23:33;4.5;83.2
67893;DHT22;54688;52.376;16.744;2023-12-28T16:26:36;4.5;82.7
67893;DHT22;54688;52.376;16.744;2023-12-28T16:29:38;4.5;82.7
67893;DHT22;54688;52.376;16.744;2023-12-28T16:32:40;4.5;82.8
67893;DHT22;54688;52.376;16.744;2023-12-28T16:35:42;4.5;82.7
67893;DHT22;54688;52.376;16.744;2023-12-28T16:38:45;4.5;82.6
67893;DHT22;54688;52.376;16.744;2023-12-28T16:41:47;4.5;82.7
67893;DHT22;54688;52.376;16.744;2023-12-28T16:44:49;4.5;82.7
67893;DHT22;54688;52.376;16.744;2023-12-28T16:47:52;4.5;82.8
67893;DHT22;54688;52.376;16.744;2023-12-28T16:50:54;4.4;83
67893;DHT22;54688;52.376;16.744;2023-12-28T16:53:56;4.4;82.7
67893;DHT22;54688;52.376;16.744;2023-12-28T16:56:58;4.4;82.8
67893;DHT22;54688;52.376;16.744;2023-12-28T17:00:01;4.4;83
67893;DHT22;54688;52.376;16.744;2023-12-28T17:03:03;4.4;83
67893;DHT22;54688;52.376;16.744;2023-12-28T17:06:06;4.4;83
67893;DHT22;54688;52.376;16.744;2023-12-28T17:09:08;4.4;83.1
67893;DHT22;54688;52.376;16.744;2023-12-28T17:12:12;4.3;81.9
67893;DHT22;54688;52.376;16.744;2023-12-28T17:15:18;4.3;83
67893;DHT22;54688;52.376;16.744;2023-12-28T17:18:21;4.4;83.1
67893;DHT22;54688;52.376;16.744;2023-12-28T17:21:24;4.3;83.1
67893;DHT22;54688;52.376;16.744;2023-12-28T17:24:29;4.4;83.4
67893;DHT22;54688;52.376;16.744;2023-12-28T17:27:38;4.4;83.4
67893;DHT22;54688;52.376;16.744;2023-12-28T17:30:47;4.4;82.2
67893;DHT22;54688;52.376;16.744;2023-12-28T17:33:53;4.4;82.8
67893;DHT22;54688;52.376;16.744;2023-12-28T17:36:55;4.4;82.8
67893;DHT22;54688;52.376;16.744;2023-12-28T17:39:58;4.4;82.6
67893;DHT22;54688;52.376;16.744;2023-12-28T17:43:03;4.3;82.5
67893;DHT22;54688;52.376;16.744;2023-12-28T17:46:14;4.3;82.5
67893;DHT22;54688;52.376;16.744;2023-12-28T17:49:26;4.3;82.6
67893;DHT22;54688;52.376;16.744;2023-12-28T17:52:30;4.3;82.3
67893;DHT22;54688;52.376;16.744;2023-12-28T17:55:33;4.2;82.4
67893;DHT22;54688;52.376;16.744;2023-12-28T17:58:36;4.1;82.4
67893;DHT22;54688;52.376;16.744;2023-12-28T18:01:38;4.1;83.5
67893;DHT22;54688;52.376;16.744;2023-12-28T18:04:40;4;82.9
67893;DHT22;54688;52.376;16.744;2023-12-28T18:07:43;4;82.9
67893;DHT22;54688;52.376;16.744;2023-12-28T18:10:45;4;83
67893;DHT22;54688;52.376;16.744;2023-12-28T18:13:47;4;82.8
67893;DHT22;54688;52.376;16.744;2023-12-28T18:16:50;4;82.9
67893;DHT22;54688;52.376;16.744;2023-12-28T18:19:52;3.9;83.1
67893;DHT22;54688;52.376;16.744;2023-12-28T18:22:54;3.9;83
67893;DHT22;54688;52.376;16.744;2023-12-28T18:25:56;3.9;83.6
67893;DHT22;54688;52.376;16.744;2023-12-28T18:28:59;3.8;83.3
67893;DHT22;54688;52.376;16.744;2023-12-28T18:32:01;3.9;83.2
67893;DHT22;54688;52.376;16.744;2023-12-28T18:35:04;3.8;83.2
67893;DHT22;54688;52.376;16.744;2023-12-28T18:38:07;3.8;83.4
67893;DHT22;54688;52.376;16.744;2023-12-28T18:41:09;3.7;83.6
67893;DHT22;54688;52.376;16.744;2023-12-28T18:44:11;3.8;84
67893;DHT22;54688;52.376;16.744;2023-12-28T18:47:14;3.7;83.6
67893;DHT22;54688;52.376;16.744;2023-12-28T18:50:16;3.7;83.7
67893;DHT22;54688;52.376;16.744;2023-12-28T18:53:18;3.6;83.7
67893;DHT22;54688;52.376;16.744;2023-12-28T18:56:20;3.6;83.9
67893;DHT22;54688;52.376;16.744;2023-12-28T18:59:22;3.6;83.6
67893;DHT22;54688;52.376;16.744;2023-12-28T19:02:25;3.6;83.7
67893;DHT22;54688;52.376;16.744;2023-12-28T19:05:27;3.5;83.8
67893;DHT22;54688;52.376;16.744;2023-12-28T19:08:31;3.5;83.4
67893;DHT22;54688;52.376;16.744;2023-12-28T19:11:33;3.4;84.2
67893;DHT22;54688;52.376;16.744;2023-12-28T19:14:35;3.4;84.3
67893;DHT22;54688;52.376;16.744;2023-12-28T19:17:40;3.4;84.9
67893;DHT22;54688;52.376;16.744;2023-12-28T19:20:42;3.4;84.4
67893;DHT22;54688;52.376;16.744;2023-12-28T19:23:44;3.4;84.5
67893;DHT22;54688;52.376;16.744;2023-12-28T19:26:46;3.4;84.7
67893;DHT22;54688;52.376;16.744;2023-12-28T19:29:50;3.5;84.9
67893;DHT22;54688;52.376;16.744;2023-12-28T19:32:52;3.4;84.6
67893;DHT22;54688;52.376;16.744;2023-12-28T19:35:53;3.4;85.1
67893;DHT22;54688;52.376;16.744;2023-12-28T19:38:56;3.4;86.2
67893;DHT22;54688;52.376;16.744;2023-12-28T19:41:59;3.4;85
67893;DHT22;54688;52.376;16.744;2023-12-28T19:45:01;3.5;85.3
67893;DHT22;54688;52.376;16.744;2023-12-28T19:48:03;3.5;85.2
67893;DHT22;54688;52.376;16.744;2023-12-28T19:51:06;3.5;86.1
67893;DHT22;54688;52.376;16.744;2023-12-28T19:54:08;3.6;85
67893;DHT22;54688;52.376;16.744;2023-12-28T19:57:10;3.6;85.1
67893;DHT22;54688;52.376;16.744;2023-12-28T20:00:13;3.6;84.8
67893;DHT22;54688;52.376;16.744;2023-12-28T20:03:16;3.6;84.7
67893;DHT22;54688;52.376;16.744;2023-12-28T20:06:18;3.6;84.7